Lemoore Naval Air Station, California
Current Conditions -  °F | °C
As of 8:56 AM on Thursday 23 Oct 2014 (Local Time) from KNLC Reporting Station
Broken Clouds Broken Clouds  
Wind Chill: 57°   Ceiling: 22000
Heat Index: 57°   Visibility: 10mi
Dew Point: 45°   Wind: 3mph
Humidity: 64%   Direction: 300°WNW
Pressure: 30.08"   Gusts: NA
Location:  36.2897°N, 119.848°W
Report Text: KNLC 231556Z 30003KT 10SM SCT180 BKN220 BKN240 14/07 A3008 RMK AO2 SLP184 RH/64 T01390072 $
Loading
Personal Weather Stations






























Interactive Weather Map
Tropical Storm Tracking
New forecast layout! Learn more

10-Day Weather Forecast

Advertisements
Track Severe Weather on mobile